createdAt,value
2018-07-22T00:04:22.932Z,26.20
2018-07-22T00:06:51.487Z,26.30
2018-07-22T00:09:20.076Z,26.30
2018-07-22T00:11:48.614Z,26.30
2018-07-22T00:14:17.343Z,26.30
2018-07-22T00:16:45.920Z,26.30
2018-07-22T00:19:14.573Z,26.40
2018-07-22T00:21:43.191Z,26.30
2018-07-22T00:26:39.967Z,26.30
2018-07-22T00:29:32.611Z,26.30
2018-07-22T00:32:01.174Z,26.30
2018-07-22T00:34:38.681Z,26.40
2018-07-22T00:37:07.702Z,26.40
2018-07-22T00:39:37.085Z,26.30
2018-07-22T00:42:05.642Z,26.40
2018-07-22T00:44:34.196Z,26.40
2018-07-22T00:47:05.404Z,26.40
2018-07-22T00:49:42.499Z,26.20
2018-07-22T00:52:16.347Z,26.00
2018-07-22T00:55:03.101Z,26.10
2018-07-22T00:57:47.717Z,26.10
2018-07-22T01:12:16.410Z,25.70
2018-07-22T01:14:45.631Z,25.70
2018-07-22T01:17:14.243Z,25.80
2018-07-22T01:19:42.776Z,25.80
2018-07-22T01:22:12.047Z,25.80
2018-07-22T01:29:37.079Z,25.80
2018-07-22T01:32:05.587Z,25.80
2018-07-22T01:34:35.512Z,25.80
2018-07-22T01:37:09.462Z,25.80
2018-07-22T01:39:38.591Z,25.80
2018-07-22T01:42:07.135Z,25.80
2018-07-22T01:44:35.823Z,25.80
2018-07-22T01:47:04.437Z,25.80
2018-07-22T01:52:25.176Z,25.70
2018-07-22T01:54:59.455Z,25.70
2018-07-22T01:57:31.895Z,25.60
2018-07-22T02:00:00.895Z,25.50
2018-07-22T02:02:35.147Z,25.60
2018-07-22T02:05:08.075Z,25.60
2018-07-22T02:07:37.812Z,25.60
2018-07-22T02:10:09.146Z,25.60
2018-07-22T02:12:38.758Z,25.50
2018-07-22T02:15:07.590Z,25.50
2018-07-22T02:17:36.178Z,25.50
2018-07-22T02:20:08.215Z,25.40
2018-07-22T02:22:38.298Z,25.40
2018-07-22T02:25:06.767Z,25.30
2018-07-22T02:27:38.195Z,25.40
2018-07-22T02:32:40.405Z,25.40
2018-07-22T02:35:09.166Z,25.30
2018-07-22T02:37:38.184Z,25.30
2018-07-22T02:40:09.819Z,25.40
2018-07-22T02:42:40.268Z,25.40
2018-07-22T02:45:12.655Z,25.30
2018-07-22T02:47:45.471Z,25.30
2018-07-22T02:50:16.191Z,25.30
2018-07-22T02:52:48.361Z,25.30
2018-07-22T02:55:17.417Z,25.30
2018-07-22T02:57:46.016Z,25.20
2018-07-22T03:00:14.550Z,25.20
2018-07-22T03:02:46.438Z,25.20
2018-07-22T03:05:16.633Z,25.20
2018-07-22T03:07:47.401Z,25.20
2018-07-22T03:10:17.320Z,25.20
2018-07-22T03:12:48.171Z,25.20
2018-07-22T03:15:18.484Z,25.10
2018-07-22T03:17:47.023Z,25.10
2018-07-22T03:20:16.107Z,25.10
2018-07-22T03:22:44.676Z,25.10
2018-07-22T03:25:13.235Z,25.00
2018-07-22T03:27:41.737Z,25.00
2018-07-22T03:35:07.521Z,25.00
2018-07-22T03:37:36.388Z,25.00
2018-07-22T03:42:33.196Z,24.90
2018-07-22T03:45:01.734Z,24.80
2018-07-22T03:47:30.231Z,24.80
2018-07-22T03:49:58.684Z,24.80
2018-07-22T03:54:56.483Z,24.70
2018-07-22T03:57:24.996Z,24.80
2018-07-22T03:59:53.532Z,24.80
2018-07-22T04:02:22.852Z,24.80
2018-07-22T04:04:53.136Z,24.80
2018-07-22T04:07:23.357Z,24.80
2018-07-22T04:09:53.832Z,24.80
2018-07-22T04:12:24.869Z,24.90
2018-07-22T04:14:53.590Z,24.90
2018-07-22T04:17:22.129Z,24.90
2018-07-22T04:19:50.614Z,24.80
2018-07-22T04:22:19.178Z,24.80
2018-07-22T04:24:47.647Z,24.80
2018-07-22T04:27:16.174Z,24.80
2018-07-22T04:29:44.687Z,24.90
2018-07-22T04:32:13.182Z,24.90
2018-07-22T04:37:09.914Z,24.80
2018-07-22T04:39:38.482Z,24.80
2018-07-22T04:42:07.029Z,24.80
2018-07-22T04:44:35.582Z,24.80
2018-07-22T04:47:04.126Z,24.80
2018-07-22T04:49:32.682Z,24.80
2018-07-22T04:52:03.611Z,24.70
2018-07-22T04:54:34.295Z,24.70
2018-07-22T04:57:03.123Z,24.70
2018-07-22T04:59:32.800Z,24.70
2018-07-22T05:02:05.566Z,24.70
2018-07-22T05:04:37.445Z,24.70
2018-07-22T05:07:06.838Z,24.70
2018-07-22T05:09:37.122Z,24.70
2018-07-22T05:12:06.356Z,24.70
2018-07-22T05:14:35.272Z,24.70
2018-07-22T05:17:04.096Z,24.70
2018-07-22T05:19:34.494Z,24.70
2018-07-22T05:22:04.711Z,24.60
2018-07-22T05:24:33.497Z,24.60
2018-07-22T05:29:30.350Z,24.70
2018-07-22T05:31:58.846Z,24.70
2018-07-22T05:34:27.350Z,24.70
2018-07-22T05:36:55.840Z,24.70
2018-07-22T05:39:24.517Z,24.90
2018-07-22T05:41:53.109Z,24.90
2018-07-22T05:44:21.667Z,25.00
2018-07-22T05:46:50.243Z,25.20
2018-07-22T05:49:18.764Z,25.30
2018-07-22T05:51:47.223Z,25.50
2018-07-22T05:54:15.707Z,25.60
2018-07-22T05:56:44.368Z,25.80
2018-07-22T05:59:13.280Z,25.80
2018-07-22T06:01:41.866Z,25.90
2018-07-22T06:04:10.487Z,26.00
2018-07-22T06:06:40.483Z,26.00
2018-07-22T06:09:10.026Z,26.30
2018-07-22T06:16:37.401Z,26.80
2018-07-22T06:19:06.038Z,27.20
2018-07-22T06:21:34.679Z,27.80
2018-07-22T06:24:03.262Z,28.60
2018-07-22T06:26:31.787Z,29.80
2018-07-22T06:29:00.378Z,31.30
2018-07-22T06:31:28.939Z,32.00
2018-07-22T06:33:59.497Z,32.70
2018-07-22T06:36:28.376Z,33.50
2018-07-22T06:38:56.960Z,34.30
2018-07-22T06:41:25.458Z,35.20
2018-07-22T06:43:56.519Z,36.00
2018-07-22T06:46:25.610Z,36.60
2018-07-22T06:48:54.762Z,37.00
2018-07-22T06:51:23.786Z,36.90
2018-07-22T06:53:52.862Z,36.10
2018-07-22T06:56:21.446Z,35.10
2018-07-22T06:58:52.208Z,34.20
2018-07-22T07:01:20.789Z,33.40
2018-07-22T07:03:49.336Z,33.00
2018-07-22T07:06:18.875Z,32.80
2018-07-22T07:08:49.103Z,32.30
2018-07-22T07:11:17.739Z,31.70
2018-07-22T07:13:46.232Z,31.40
2018-07-22T07:16:14.803Z,31.00
2018-07-22T07:18:43.363Z,30.80
2018-07-22T07:21:12.681Z,30.60
2018-07-22T07:23:41.248Z,30.50
2018-07-22T07:26:09.819Z,30.20
2018-07-22T07:28:38.451Z,30.10
2018-07-22T07:31:07.120Z,29.90
2018-07-22T07:33:35.726Z,29.50
2018-07-22T07:36:04.335Z,29.40
2018-07-22T07:42:10.324Z,29.40
2018-07-22T07:44:54.771Z,29.50
2018-07-22T10:12:58.524Z,27.80
2018-07-22T10:20:14.003Z,28.40
2018-07-22T10:25:28.025Z,28.90
2018-07-22T10:28:18.467Z,29.10
2018-07-22T10:31:11.661Z,29.30
2018-07-22T10:33:50.609Z,29.50
2018-07-22T10:36:27.129Z,29.60
2018-07-22T10:44:18.478Z,29.60
2018-07-22T10:46:52.277Z,29.70
2018-07-22T10:59:26.337Z,29.90
2018-07-22T11:01:56.014Z,29.40
2018-07-22T11:04:25.462Z,29.50
2018-07-22T11:15:56.953Z,29.90
2018-07-22T11:18:37.299Z,29.90
2018-07-22T11:21:06.197Z,29.60
2018-07-22T11:23:34.675Z,29.70
2018-07-22T11:26:03.350Z,29.90
2018-07-22T11:28:31.861Z,29.90
2018-07-22T11:31:00.353Z,30.20
2018-07-22T11:33:41.437Z,30.40
2018-07-22T11:39:06.784Z,30.50
2018-07-22T11:41:35.663Z,30.50
2018-07-22T11:44:04.385Z,30.60
2018-07-22T11:46:33.004Z,30.70
2018-07-22T11:51:29.903Z,30.80
2018-07-22T11:53:58.411Z,30.90
2018-07-22T11:56:27.709Z,30.90
2018-07-22T11:58:57.716Z,30.90
2018-07-22T12:01:26.592Z,31.10
2018-07-22T12:03:55.695Z,31.30
2018-07-22T12:06:29.370Z,31.20
2018-07-22T12:09:07.187Z,31.10
2018-07-22T12:11:35.775Z,31.10
2018-07-22T12:14:04.686Z,31.10
2018-07-22T12:16:34.519Z,31.10
2018-07-22T12:19:03.095Z,31.10
2018-07-22T12:21:31.944Z,31.10
2018-07-22T12:24:00.445Z,31.10
2018-07-22T12:26:29.901Z,31.20
2018-07-22T12:28:58.626Z,31.20
2018-07-22T12:31:27.378Z,31.10
2018-07-22T12:33:56.454Z,31.20
2018-07-22T12:36:24.971Z,31.40
2018-07-22T12:38:55.799Z,31.50
2018-07-22T12:41:26.792Z,31.20
2018-07-22T12:44:02.403Z,31.10
2018-07-22T12:46:31.108Z,31.20
2018-07-22T12:49:01.618Z,31.10
2018-07-22T12:51:30.226Z,31.10
2018-07-22T12:54:17.837Z,31.20
2018-07-22T12:57:01.158Z,31.40
2018-07-22T12:59:29.758Z,31.60
2018-07-22T13:01:58.322Z,31.70
2018-07-22T13:04:26.930Z,31.90
2018-07-22T13:06:55.448Z,32.10
2018-07-22T13:09:23.925Z,32.10
2018-07-22T13:11:53.173Z,32.10
2018-07-22T13:14:25.542Z,32.10
2018-07-22T13:17:01.728Z,32.20
2018-07-22T13:19:30.999Z,32.20
2018-07-22T13:22:08.507Z,32.10
2018-07-22T13:24:37.107Z,32.10
2018-07-22T13:27:07.193Z,32.10
2018-07-22T13:29:37.373Z,32.00
2018-07-22T13:32:06.432Z,32.00
2018-07-22T13:34:35.020Z,32.00
2018-07-22T13:37:05.069Z,32.00
2018-07-22T13:39:41.377Z,32.20
2018-07-22T13:42:10.220Z,32.30
2018-07-22T13:44:38.735Z,32.30
2018-07-22T13:47:07.624Z,32.20
2018-07-22T13:49:36.133Z,32.10
2018-07-22T13:52:05.139Z,31.90
2018-07-22T13:54:34.609Z,32.00
2018-07-22T13:57:05.070Z,32.00
2018-07-22T13:59:35.057Z,31.90
2018-07-22T14:02:05.620Z,32.00
2018-07-22T14:04:35.286Z,32.10
2018-07-22T14:07:05.746Z,32.30
2018-07-22T14:09:35.557Z,32.30
2018-07-22T14:12:06.344Z,32.20
2018-07-22T14:14:35.015Z,32.20
2018-07-22T14:17:03.595Z,32.30
2018-07-22T14:19:33.595Z,32.40
2018-07-22T14:24:32.843Z,32.60
2018-07-22T14:27:02.883Z,32.70
2018-07-22T14:29:32.109Z,32.70
2018-07-22T14:32:00.710Z,32.90
2018-07-22T14:34:41.691Z,32.90
2018-07-22T14:39:58.804Z,32.60
2018-07-22T14:45:33.065Z,32.80
2018-07-22T14:48:06.833Z,32.90
2018-07-22T14:50:36.846Z,32.90
2018-07-22T14:53:07.232Z,32.70
2018-07-22T14:55:37.298Z,32.40
2018-07-22T14:58:18.378Z,32.20
2018-07-22T15:00:48.129Z,32.00
2018-07-22T15:03:16.707Z,31.90
2018-07-22T15:05:45.250Z,31.90
2018-07-22T15:08:13.787Z,31.80
2018-07-22T15:10:42.665Z,31.70
2018-07-22T15:13:11.200Z,31.70
2018-07-22T15:15:39.988Z,31.60
2018-07-22T15:20:37.796Z,31.60
2018-07-22T15:23:08.494Z,31.50
2018-07-22T15:25:37.229Z,31.30
2018-07-22T15:28:07.184Z,31.30
2018-07-22T15:30:37.164Z,31.10
2018-07-22T15:33:06.755Z,31.20
2018-07-22T15:35:35.292Z,31.30
2018-07-22T15:45:31.759Z,31.20
2018-07-22T15:48:01.468Z,31.30
2018-07-22T15:50:30.640Z,31.40
2018-07-22T15:52:59.260Z,31.50
2018-07-22T15:55:27.982Z,31.70
2018-07-22T15:57:56.572Z,31.70
2018-07-22T16:00:27.491Z,31.70
2018-07-22T16:02:56.181Z,31.60
2018-07-22T16:05:24.849Z,31.60
2018-07-22T16:07:54.123Z,31.50
2018-07-22T16:10:25.858Z,31.30
2018-07-22T16:12:55.411Z,31.20
2018-07-22T16:20:22.913Z,31.00
2018-07-22T16:22:51.804Z,31.00
2018-07-22T16:27:49.979Z,31.00
2018-07-22T16:30:20.497Z,31.00
2018-07-22T16:32:50.399Z,30.90
2018-07-22T16:35:18.893Z,30.80
2018-07-22T16:37:47.776Z,30.70
2018-07-22T16:40:16.337Z,30.60
2018-07-22T16:42:45.038Z,30.50
2018-07-22T16:45:14.672Z,30.50
2018-07-22T16:47:43.315Z,30.50
2018-07-22T16:50:22.402Z,30.50
2018-07-22T16:52:52.750Z,30.50
2018-07-22T16:55:22.672Z,30.50
2018-07-22T16:57:51.326Z,30.50
2018-07-22T17:00:21.797Z,30.50
2018-07-22T17:02:50.434Z,30.50
2018-07-22T17:05:19.149Z,30.50
2018-07-22T17:07:48.563Z,30.50
2018-07-22T17:10:17.958Z,30.50
2018-07-22T17:12:46.844Z,30.60
2018-07-22T17:15:15.460Z,30.70
2018-07-22T17:17:44.078Z,30.70
2018-07-22T17:20:12.744Z,30.70
2018-07-22T17:25:11.294Z,30.50
2018-07-22T17:27:39.951Z,30.60
2018-07-22T17:30:08.559Z,30.50
2018-07-22T17:32:37.129Z,30.50
2018-07-22T17:35:18.291Z,30.50
2018-07-22T17:37:47.160Z,30.50
2018-07-22T17:40:34.043Z,30.50
2018-07-22T17:43:14.412Z,30.60
2018-07-22T17:45:43.248Z,30.60
2018-07-22T17:48:14.200Z,30.60
2018-07-22T17:50:44.741Z,30.60
2018-07-22T17:53:13.379Z,30.60
2018-07-22T17:55:45.612Z,30.50
2018-07-22T17:58:14.312Z,30.50
2018-07-22T18:00:42.824Z,30.40
2018-07-22T18:03:24.390Z,30.40
2018-07-22T18:05:53.426Z,30.40
2018-07-22T18:08:22.853Z,30.20
2018-07-22T18:10:55.366Z,30.20
2018-07-22T18:13:25.210Z,30.20
2018-07-22T18:15:55.998Z,30.10
2018-07-22T18:18:24.637Z,30.10
2018-07-22T18:20:53.350Z,30.20
2018-07-22T18:23:40.365Z,30.20
2018-07-22T18:26:17.063Z,30.10
2018-07-22T18:28:46.710Z,30.10
2018-07-22T18:31:16.831Z,30.10
2018-07-22T18:33:45.435Z,30.10
2018-07-22T18:36:14.073Z,30.20
2018-07-22T18:38:59.256Z,30.10
